sensor_id;sensor_type;location;lat;lon;timestamp;temperature;humidity
81266;DHT22;70748;52.510;13.410;2023-09-19T00:01:43;18.40;84.00
81266;DHT22;70748;52.510;13.410;2023-09-19T00:04:32;18.40;83.90
81266;DHT22;70748;52.510;13.410;2023-09-19T00:07:05;18.30;84.00
81266;DHT22;70748;52.510;13.410;2023-09-19T00:09:39;18.30;84.30
81266;DHT22;70748;52.510;13.410;2023-09-19T00:15:39;18.20;84.30
81266;DHT22;70748;52.510;13.410;2023-09-19T00:17:56;18.20;84.30
81266;DHT22;70748;52.510;13.410;2023-09-19T00:20:31;18.10;84.50
81266;DHT22;70748;52.510;13.410;2023-09-19T00:23:11;18.10;84.60
81266;DHT22;70748;52.510;13.410;2023-09-19T00:25:36;18.10;84.90
81266;DHT22;70748;52.510;13.410;2023-09-19T00:28:03;18.00;84.70
81266;DHT22;70748;52.510;13.410;2023-09-19T00:30:41;18.00;84.70
81266;DHT22;70748;52.510;13.410;2023-09-19T00:33:44;18.00;84.70
81266;DHT22;70748;52.510;13.410;2023-09-19T00:36:42;18.00;85.10
81266;DHT22;70748;52.510;13.410;2023-09-19T00:39:40;17.90;84.90
81266;DHT22;70748;52.510;13.410;2023-09-19T00:42:06;17.90;85.20
81266;DHT22;70748;52.510;13.410;2023-09-19T00:44:33;17.90;85.20
81266;DHT22;70748;52.510;13.410;2023-09-19T00:47:00;17.90;85.40
81266;DHT22;70748;52.510;13.410;2023-09-19T00:49:25;17.80;85.30
81266;DHT22;70748;52.510;13.410;2023-09-19T00:51:51;17.80;85.50
81266;DHT22;70748;52.510;13.410;2023-09-19T00:54:17;17.80;85.50
81266;DHT22;70748;52.510;13.410;2023-09-19T00:56:44;17.80;85.50
81266;DHT22;70748;52.510;13.410;2023-09-19T00:59:10;17.80;85.60
81266;DHT22;70748;52.510;13.410;2023-09-19T01:01:37;17.80;85.60
81266;DHT22;70748;52.510;13.410;2023-09-19T01:04:05;17.70;85.40
81266;DHT22;70748;52.510;13.410;2023-09-19T01:06:31;17.80;85.70
81266;DHT22;70748;52.510;13.410;2023-09-19T01:08:56;17.80;85.50
81266;DHT22;70748;52.510;13.410;2023-09-19T01:11:30;17.70;85.30
81266;DHT22;70748;52.510;13.410;2023-09-19T01:14:01;17.80;85.50
81266;DHT22;70748;52.510;13.410;2023-09-19T01:16:32;17.80;85.50
81266;DHT22;70748;52.510;13.410;2023-09-19T01:29:46;18.00;84.80
81266;DHT22;70748;52.510;13.410;2023-09-19T01:32:19;18.10;84.40
81266;DHT22;70748;52.510;13.410;2023-09-19T01:34:47;18.10;84.20
81266;DHT22;70748;52.510;13.410;2023-09-19T01:37:17;18.20;84.10
81266;DHT22;70748;52.510;13.410;2023-09-19T01:39:50;18.20;83.90
81266;DHT22;70748;52.510;13.410;2023-09-19T01:47:33;18.30;83.20
81266;DHT22;70748;52.510;13.410;2023-09-19T01:52:31;18.40;82.80
81266;DHT22;70748;52.510;13.410;2023-09-19T01:55:02;18.50;82.50
81266;DHT22;70748;52.510;13.410;2023-09-19T01:57:40;18.50;82.30
81266;DHT22;70748;52.510;13.410;2023-09-19T02:00:09;18.50;82.30
81266;DHT22;70748;52.510;13.410;2023-09-19T02:02:40;18.50;82.20
81266;DHT22;70748;52.510;13.410;2023-09-19T02:05:07;18.40;82.00
81266;DHT22;70748;52.510;13.410;2023-09-19T02:07:33;18.30;82.40
81266;DHT22;70748;52.510;13.410;2023-09-19T02:09:58;18.30;82.40
81266;DHT22;70748;52.510;13.410;2023-09-19T02:12:26;18.20;82.70
81266;DHT22;70748;52.510;13.410;2023-09-19T02:14:51;18.20;82.70
81266;DHT22;70748;52.510;13.410;2023-09-19T02:17:17;18.20;82.80
81266;DHT22;70748;52.510;13.410;2023-09-19T02:19:43;18.20;82.70
81266;DHT22;70748;52.510;13.410;2023-09-19T02:22:08;18.10;83.00
81266;DHT22;70748;52.510;13.410;2023-09-19T02:24:38;18.00;83.00
81266;DHT22;70748;52.510;13.410;2023-09-19T02:27:04;18.00;83.10
81266;DHT22;70748;52.510;13.410;2023-09-19T02:29:30;18.00;83.50
81266;DHT22;70748;52.510;13.410;2023-09-19T02:31:55;17.90;83.60
81266;DHT22;70748;52.510;13.410;2023-09-19T02:34:21;18.00;83.60
81266;DHT22;70748;52.510;13.410;2023-09-19T02:36:47;17.90;83.80
81266;DHT22;70748;52.510;13.410;2023-09-19T02:39:12;17.80;83.90
81266;DHT22;70748;52.510;13.410;2023-09-19T02:41:38;17.80;84.20
81266;DHT22;70748;52.510;13.410;2023-09-19T02:44:04;17.70;84.20
81266;DHT22;70748;52.510;13.410;2023-09-19T02:46:33;17.70;84.60
81266;DHT22;70748;52.510;13.410;2023-09-19T02:48:58;17.70;84.60
81266;DHT22;70748;52.510;13.410;2023-09-19T02:51:24;17.60;84.90
81266;DHT22;70748;52.510;13.410;2023-09-19T02:53:50;17.70;84.90
81266;DHT22;70748;52.510;13.410;2023-09-19T02:56:18;17.70;85.10
81266;DHT22;70748;52.510;13.410;2023-09-19T02:58:43;17.70;85.20
81266;DHT22;70748;52.510;13.410;2023-09-19T03:01:09;17.70;85.20
81266;DHT22;70748;52.510;13.410;2023-09-19T03:03:36;17.70;85.90
81266;DHT22;70748;52.510;13.410;2023-09-19T03:06:05;17.70;85.00
81266;DHT22;70748;52.510;13.410;2023-09-19T03:08:31;17.80;84.80
81266;DHT22;70748;52.510;13.410;2023-09-19T03:11:04;17.70;84.50
81266;DHT22;70748;52.510;13.410;2023-09-19T03:13:31;17.80;84.80
81266;DHT22;70748;52.510;13.410;2023-09-19T03:15:57;17.80;84.50
81266;DHT22;70748;52.510;13.410;2023-09-19T03:18:24;17.80;84.30
81266;DHT22;70748;52.510;13.410;2023-09-19T03:20:54;17.80;84.20
81266;DHT22;70748;52.510;13.410;2023-09-19T03:23:20;17.80;83.80
81266;DHT22;70748;52.510;13.410;2023-09-19T03:25:45;17.80;83.30
81266;DHT22;70748;52.510;13.410;2023-09-19T03:28:12;17.90;83.30
81266;DHT22;70748;52.510;13.410;2023-09-19T03:30:37;17.90;82.60
81266;DHT22;70748;52.510;13.410;2023-09-19T03:33:04;17.90;82.50
81266;DHT22;70748;52.510;13.410;2023-09-19T03:35:30;17.90;82.40
81266;DHT22;70748;52.510;13.410;2023-09-19T03:37:56;17.90;82.00
81266;DHT22;70748;52.510;13.410;2023-09-19T03:40:22;18.00;81.60
81266;DHT22;70748;52.510;13.410;2023-09-19T03:42:48;18.00;80.40
81266;DHT22;70748;52.510;13.410;2023-09-19T03:45:14;18.10;80.10
81266;DHT22;70748;52.510;13.410;2023-09-19T03:47:41;18.20;79.50
81266;DHT22;70748;52.510;13.410;2023-09-19T03:50:07;18.20;79.10
81266;DHT22;70748;52.510;13.410;2023-09-19T03:52:33;18.20;79.40
81266;DHT22;70748;52.510;13.410;2023-09-19T03:54:59;18.20;79.10
81266;DHT22;70748;52.510;13.410;2023-09-19T03:57:26;18.30;78.50
81266;DHT22;70748;52.510;13.410;2023-09-19T03:59:52;18.30;78.10
81266;DHT22;70748;52.510;13.410;2023-09-19T04:02:19;18.30;77.90
81266;DHT22;70748;52.510;13.410;2023-09-19T04:04:51;18.30;78.30
81266;DHT22;70748;52.510;13.410;2023-09-19T04:07:17;18.20;77.70
81266;DHT22;70748;52.510;13.410;2023-09-19T04:09:44;18.30;77.70
81266;DHT22;70748;52.510;13.410;2023-09-19T04:12:11;18.30;77.30
81266;DHT22;70748;52.510;13.410;2023-09-19T04:14:37;18.30;76.70
81266;DHT22;70748;52.510;13.410;2023-09-19T04:17:03;18.30;76.80
81266;DHT22;70748;52.510;13.410;2023-09-19T04:19:30;18.20;76.90
81266;DHT22;70748;52.510;13.410;2023-09-19T04:21:56;18.10;76.50
81266;DHT22;70748;52.510;13.410;2023-09-19T04:24:21;18.10;75.60
81266;DHT22;70748;52.510;13.410;2023-09-19T04:26:47;18.30;74.30
81266;DHT22;70748;52.510;13.410;2023-09-19T04:29:13;18.30;73.70
81266;DHT22;70748;52.510;13.410;2023-09-19T04:31:39;18.20;74.10
81266;DHT22;70748;52.510;13.410;2023-09-19T04:34:05;18.20;74.50
81266;DHT22;70748;52.510;13.410;2023-09-19T04:36:31;18.10;74.40
81266;DHT22;70748;52.510;13.410;2023-09-19T04:38:56;18.10;74.40
81266;DHT22;70748;52.510;13.410;2023-09-19T04:41:22;18.00;74.50
81266;DHT22;70748;52.510;13.410;2023-09-19T04:43:48;18.00;74.10
81266;DHT22;70748;52.510;13.410;2023-09-19T04:46:16;17.90;74.40
81266;DHT22;70748;52.510;13.410;2023-09-19T04:48:43;18.00;74.20
81266;DHT22;70748;52.510;13.410;2023-09-19T04:51:08;18.00;74.20
81266;DHT22;70748;52.510;13.410;2023-09-19T04:53:35;18.00;74.40
81266;DHT22;70748;52.510;13.410;2023-09-19T04:56:01;18.10;73.80
81266;DHT22;70748;52.510;13.410;2023-09-19T04:58:29;18.00;73.90
81266;DHT22;70748;52.510;13.410;2023-09-19T05:00:55;17.90;73.90
81266;DHT22;70748;52.510;13.410;2023-09-19T05:03:21;17.90;73.90
81266;DHT22;70748;52.510;13.410;2023-09-19T05:05:47;18.00;73.90
81266;DHT22;70748;52.510;13.410;2023-09-19T05:08:13;18.00;73.60
81266;DHT22;70748;52.510;13.410;2023-09-19T05:10:39;18.00;73.90
81266;DHT22;70748;52.510;13.410;2023-09-19T05:13:05;18.00;73.70
81266;DHT22;70748;52.510;13.410;2023-09-19T05:15:32;18.00;73.50
81266;DHT22;70748;52.510;13.410;2023-09-19T05:17:58;17.90;73.90
81266;DHT22;70748;52.510;13.410;2023-09-19T05:20:24;17.90;73.60
81266;DHT22;70748;52.510;13.410;2023-09-19T05:23:00;17.90;73.80
81266;DHT22;70748;52.510;13.410;2023-09-19T05:25:27;18.00;73.20
81266;DHT22;70748;52.510;13.410;2023-09-19T05:27:58;18.00;72.70
81266;DHT22;70748;52.510;13.410;2023-09-19T05:30:25;18.00;72.90
81266;DHT22;70748;52.510;13.410;2023-09-19T05:32:52;17.90;73.00
81266;DHT22;70748;52.510;13.410;2023-09-19T05:35:18;17.90;73.40
81266;DHT22;70748;52.510;13.410;2023-09-19T05:37:43;17.90;73.10
81266;DHT22;70748;52.510;13.410;2023-09-19T05:40:09;17.90;73.20
81266;DHT22;70748;52.510;13.410;2023-09-19T05:42:35;18.00;72.70
81266;DHT22;70748;52.510;13.410;2023-09-19T05:45:00;17.90;72.70
81266;DHT22;70748;52.510;13.410;2023-09-19T05:47:26;17.90;72.80
81266;DHT22;70748;52.510;13.410;2023-09-19T05:49:51;18.00;72.50
81266;DHT22;70748;52.510;13.410;2023-09-19T05:52:17;18.00;72.70
81266;DHT22;70748;52.510;13.410;2023-09-19T05:54:43;18.00;72.80
81266;DHT22;70748;52.510;13.410;2023-09-19T05:57:09;17.90;72.70
81266;DHT22;70748;52.510;13.410;2023-09-19T05:59:36;18.00;72.50
81266;DHT22;70748;52.510;13.410;2023-09-19T06:02:02;18.00;72.40
81266;DHT22;70748;52.510;13.410;2023-09-19T06:04:30;18.00;72.50
81266;DHT22;70748;52.510;13.410;2023-09-19T06:06:56;18.00;72.70
81266;DHT22;70748;52.510;13.410;2023-09-19T06:09:21;18.00;72.70
81266;DHT22;70748;52.510;13.410;2023-09-19T06:11:48;18.00;72.90
81266;DHT22;70748;52.510;13.410;2023-09-19T06:14:13;17.90;73.00
81266;DHT22;70748;52.510;13.410;2023-09-19T06:16:39;18.00;72.70
81266;DHT22;70748;52.510;13.410;2023-09-19T06:19:06;18.00;72.90
81266;DHT22;70748;52.510;13.410;2023-09-19T06:21:34;18.00;73.00
81266;DHT22;70748;52.510;13.410;2023-09-19T06:23:59;18.00;72.70
81266;DHT22;70748;52.510;13.410;2023-09-19T06:26:25;18.10;72.90
81266;DHT22;70748;52.510;13.410;2023-09-19T06:28:52;18.10;72.20
81266;DHT22;70748;52.510;13.410;2023-09-19T06:31:18;18.20;72.00
81266;DHT22;70748;52.510;13.410;2023-09-19T06:33:43;18.20;71.40
81266;DHT22;70748;52.510;13.410;2023-09-19T06:36:09;18.30;71.30
81266;DHT22;70748;52.510;13.410;2023-09-19T06:38:35;18.40;70.60
81266;DHT22;70748;52.510;13.410;2023-09-19T06:41:02;18.40;70.10
81266;DHT22;70748;52.510;13.410;2023-09-19T06:43:30;18.40;70.70
81266;DHT22;70748;52.510;13.410;2023-09-19T06:45:56;18.50;70.60
81266;DHT22;70748;52.510;13.410;2023-09-19T06:48:22;18.70;70.30
81266;DHT22;70748;52.510;13.410;2023-09-19T06:50:50;18.80;69.80
81266;DHT22;70748;52.510;13.410;2023-09-19T06:53:16;18.80;69.60
81266;DHT22;70748;52.510;13.410;2023-09-19T06:55:42;18.90;69.60
81266;DHT22;70748;52.510;13.410;2023-09-19T06:58:09;19.10;69.10
81266;DHT22;70748;52.510;13.410;2023-09-19T07:00:36;19.30;67.90
81266;DHT22;70748;52.510;13.410;2023-09-19T07:05:30;20.00;66.20
81266;DHT22;70748;52.510;13.410;2023-09-19T07:07:56;20.60;64.00
81266;DHT22;70748;52.510;13.410;2023-09-19T07:10:24;21.70;63.10
81266;DHT22;70748;52.510;13.410;2023-09-19T07:13:01;23.10;58.80
81266;DHT22;70748;52.510;13.410;2023-09-19T07:15:27;24.70;54.50
81266;DHT22;70748;52.510;13.410;2023-09-19T07:17:53;26.00;50.20
81266;DHT22;70748;52.510;13.410;2023-09-19T07:20:19;26.90;47.50
81266;DHT22;70748;52.510;13.410;2023-09-19T07:22:45;26.90;46.60
81266;DHT22;70748;52.510;13.410;2023-09-19T07:25:10;26.70;45.40
81266;DHT22;70748;52.510;13.410;2023-09-19T07:27:36;26.70;46.10
81266;DHT22;70748;52.510;13.410;2023-09-19T07:30:01;26.70;45.60
81266;DHT22;70748;52.510;13.410;2023-09-19T07:32:27;27.00;45.50
81266;DHT22;70748;52.510;13.410;2023-09-19T07:34:52;27.10;45.00
81266;DHT22;70748;52.510;13.410;2023-09-19T07:37:20;27.00;45.40
81266;DHT22;70748;52.510;13.410;2023-09-19T07:39:46;26.70;44.30
81266;DHT22;70748;52.510;13.410;2023-09-19T07:42:12;26.10;45.90
81266;DHT22;70748;52.510;13.410;2023-09-19T07:44:43;25.60;45.70
81266;DHT22;70748;52.510;13.410;2023-09-19T07:47:09;25.20;47.00
81266;DHT22;70748;52.510;13.410;2023-09-19T07:49:34;24.60;47.20
81266;DHT22;70748;52.510;13.410;2023-09-19T07:52:00;24.10;49.20
81266;DHT22;70748;52.510;13.410;2023-09-19T07:54:26;23.70;50.10
81266;DHT22;70748;52.510;13.410;2023-09-19T07:56:51;23.40;50.30
81266;DHT22;70748;52.510;13.410;2023-09-19T07:59:17;23.20;51.30
81266;DHT22;70748;52.510;13.410;2023-09-19T08:01:42;23.10;50.90
81266;DHT22;70748;52.510;13.410;2023-09-19T08:04:09;23.10;50.70
81266;DHT22;70748;52.510;13.410;2023-09-19T08:06:35;22.90;51.30
81266;DHT22;70748;52.510;13.410;2023-09-19T08:09:00;22.90;51.10
81266;DHT22;70748;52.510;13.410;2023-09-19T08:11:32;22.90;51.20
81266;DHT22;70748;52.510;13.410;2023-09-19T08:13:58;22.80;50.20
81266;DHT22;70748;52.510;13.410;2023-09-19T08:16:24;22.80;50.80
81266;DHT22;70748;52.510;13.410;2023-09-19T08:18:50;22.80;51.30
81266;DHT22;70748;52.510;13.410;2023-09-19T08:21:23;22.70;50.80
81266;DHT22;70748;52.510;13.410;2023-09-19T08:23:49;22.60;51.30
81266;DHT22;70748;52.510;13.410;2023-09-19T08:26:15;22.50;50.60
81266;DHT22;70748;52.510;13.410;2023-09-19T08:28:40;22.50;50.90
81266;DHT22;70748;52.510;13.410;2023-09-19T08:31:07;22.40;51.30
81266;DHT22;70748;52.510;13.410;2023-09-19T08:33:34;22.30;52.00
81266;DHT22;70748;52.510;13.410;2023-09-19T08:36:01;22.20;51.70
81266;DHT22;70748;52.510;13.410;2023-09-19T08:38:26;22.10;52.00
81266;DHT22;70748;52.510;13.410;2023-09-19T08:41:04;22.00;52.50
81266;DHT22;70748;52.510;13.410;2023-09-19T08:43:30;22.00;52.30
81266;DHT22;70748;52.510;13.410;2023-09-19T08:48:30;22.00;52.80
81266;DHT22;70748;52.510;13.410;2023-09-19T08:50:58;22.30;51.40
81266;DHT22;70748;52.510;13.410;2023-09-19T08:53:51;22.60;51.00
81266;DHT22;70748;52.510;13.410;2023-09-19T08:56:17;24.10;47.80
81266;DHT22;70748;52.510;13.410;2023-09-19T08:59:02;25.70;43.40
81266;DHT22;70748;52.510;13.410;2023-09-19T09:01:29;26.40;42.00
81266;DHT22;70748;52.510;13.410;2023-09-19T09:03:57;27.50;40.20
81266;DHT22;70748;52.510;13.410;2023-09-19T09:06:23;28.00;39.40
81266;DHT22;70748;52.510;13.410;2023-09-19T09:08:50;27.70;38.50
81266;DHT22;70748;52.510;13.410;2023-09-19T09:11:16;27.10;39.80
81266;DHT22;70748;52.510;13.410;2023-09-19T09:13:45;27.60;38.90
81266;DHT22;70748;52.510;13.410;2023-09-19T09:16:11;28.10;38.30
81266;DHT22;70748;52.510;13.410;2023-09-19T09:18:38;28.10;38.10
81266;DHT22;70748;52.510;13.410;2023-09-19T09:21:03;27.40;38.40
81266;DHT22;70748;52.510;13.410;2023-09-19T09:23:29;26.70;38.60
81266;DHT22;70748;52.510;13.410;2023-09-19T09:25:55;26.10;40.50
81266;DHT22;70748;52.510;13.410;2023-09-19T09:28:34;25.70;42.30
81266;DHT22;70748;52.510;13.410;2023-09-19T09:31:01;25.00;43.10
81266;DHT22;70748;52.510;13.410;2023-09-19T09:33:52;24.40;43.70
81266;DHT22;70748;52.510;13.410;2023-09-19T09:36:17;24.00;43.30
81266;DHT22;70748;52.510;13.410;2023-09-19T09:38:59;23.80;44.20
81266;DHT22;70748;52.510;13.410;2023-09-19T09:41:35;23.80;45.50
81266;DHT22;70748;52.510;13.410;2023-09-19T09:44:15;24.00;44.70
81266;DHT22;70748;52.510;13.410;2023-09-19T09:46:44;24.10;44.90
81266;DHT22;70748;52.510;13.410;2023-09-19T09:49:27;23.80;45.10
81266;DHT22;70748;52.510;13.410;2023-09-19T09:52:03;23.60;45.00
81266;DHT22;70748;52.510;13.410;2023-09-19T09:55:03;23.70;45.10
81266;DHT22;70748;52.510;13.410;2023-09-19T09:57:32;23.80;44.40
81266;DHT22;70748;52.510;13.410;2023-09-19T09:59:59;23.90;44.90
81266;DHT22;70748;52.510;13.410;2023-09-19T10:02:41;23.90;44.60
81266;DHT22;70748;52.510;13.410;2023-09-19T10:05:17;23.90;42.90
81266;DHT22;70748;52.510;13.410;2023-09-19T10:07:47;23.60;42.20
81266;DHT22;70748;52.510;13.410;2023-09-19T10:10:29;23.30;43.80
81266;DHT22;70748;52.510;13.410;2023-09-19T10:12:54;23.10;44.20
81266;DHT22;70748;52.510;13.410;2023-09-19T10:15:21;23.10;43.20
81266;DHT22;70748;52.510;13.410;2023-09-19T10:17:50;22.90;43.70
81266;DHT22;70748;52.510;13.410;2023-09-19T10:20:19;23.00;44.00
81266;DHT22;70748;52.510;13.410;2023-09-19T10:22:57;23.00;43.30
81266;DHT22;70748;52.510;13.410;2023-09-19T10:25:27;23.00;44.20
81266;DHT22;70748;52.510;13.410;2023-09-19T10:28:00;23.10;43.80
81266;DHT22;70748;52.510;13.410;2023-09-19T10:30:28;23.30;43.30
81266;DHT22;70748;52.510;13.410;2023-09-19T10:33:02;23.40;44.00
81266;DHT22;70748;52.510;13.410;2023-09-19T10:35:28;23.20;44.90
81266;DHT22;70748;52.510;13.410;2023-09-19T10:37:54;23.10;43.00
81266;DHT22;70748;52.510;13.410;2023-09-19T10:40:22;23.00;43.40
81266;DHT22;70748;52.510;13.410;2023-09-19T10:42:59;22.90;42.40
81266;DHT22;70748;52.510;13.410;2023-09-19T10:45:25;22.70;43.40
81266;DHT22;70748;52.510;13.410;2023-09-19T10:47:51;22.60;44.30
81266;DHT22;70748;52.510;13.410;2023-09-19T10:50:20;22.70;42.60
81266;DHT22;70748;52.510;13.410;2023-09-19T10:52:49;22.60;43.70
81266;DHT22;70748;52.510;13.410;2023-09-19T10:55:17;22.70;42.60
81266;DHT22;70748;52.510;13.410;2023-09-19T10:57:47;22.80;41.70
81266;DHT22;70748;52.510;13.410;2023-09-19T11:00:13;22.80;41.60
81266;DHT22;70748;52.510;13.410;2023-09-19T11:05:33;22.70;41.90
81266;DHT22;70748;52.510;13.410;2023-09-19T11:07:59;22.60;41.60
81266;DHT22;70748;52.510;13.410;2023-09-19T11:13:33;22.80;41.80
81266;DHT22;70748;52.510;13.410;2023-09-19T11:21:51;23.40;39.90
81266;DHT22;70748;52.510;13.410;2023-09-19T11:26:44;23.60;40.10
81266;DHT22;70748;52.510;13.410;2023-09-19T11:31:51;24.00;39.10
81266;DHT22;70748;52.510;13.410;2023-09-19T11:34:50;24.10;38.60
81266;DHT22;70748;52.510;13.410;2023-09-19T11:39:39;24.10;39.40
81266;DHT22;70748;52.510;13.410;2023-09-19T11:44:52;24.20;37.80
81266;DHT22;70748;52.510;13.410;2023-09-19T11:47:21;24.30;38.00
81266;DHT22;70748;52.510;13.410;2023-09-19T11:49:47;24.30;38.10
81266;DHT22;70748;52.510;13.410;2023-09-19T11:52:18;24.40;37.90
81266;DHT22;70748;52.510;13.410;2023-09-19T11:54:47;24.40;38.40
81266;DHT22;70748;52.510;13.410;2023-09-19T11:57:20;24.40;38.40
81266;DHT22;70748;52.510;13.410;2023-09-19T11:59:46;24.80;37.30
81266;DHT22;70748;52.510;13.410;2023-09-19T12:02:14;25.50;37.70
81266;DHT22;70748;52.510;13.410;2023-09-19T12:04:44;26.10;35.10
81266;DHT22;70748;52.510;13.410;2023-09-19T12:07:14;26.60;33.90
81266;DHT22;70748;52.510;13.410;2023-09-19T12:10:03;26.90;34.40
81266;DHT22;70748;52.510;13.410;2023-09-19T12:12:29;27.40;31.80
81266;DHT22;70748;52.510;13.410;2023-09-19T12:14:56;27.80;31.70
81266;DHT22;70748;52.510;13.410;2023-09-19T12:17:46;28.10;31.60
81266;DHT22;70748;52.510;13.410;2023-09-19T12:20:10;27.60;31.30
81266;DHT22;70748;52.510;13.410;2023-09-19T12:22:48;27.60;31.20
81266;DHT22;70748;52.510;13.410;2023-09-19T12:25:15;27.90;30.60
81266;DHT22;70748;52.510;13.410;2023-09-19T12:27:44;28.20;30.70
81266;DHT22;70748;52.510;13.410;2023-09-19T12:30:12;28.50;30.00
81266;DHT22;70748;52.510;13.410;2023-09-19T12:32:39;28.30;29.30
81266;DHT22;70748;52.510;13.410;2023-09-19T12:35:09;28.20;29.70
81266;DHT22;70748;52.510;13.410;2023-09-19T12:37:44;28.70;29.70
81266;DHT22;70748;52.510;13.410;2023-09-19T12:40:18;29.30;29.20
81266;DHT22;70748;52.510;13.410;2023-09-19T12:42:48;29.50;28.80
81266;DHT22;70748;52.510;13.410;2023-09-19T12:45:14;29.60;28.90
81266;DHT22;70748;52.510;13.410;2023-09-19T12:47:40;29.60;28.70
81266;DHT22;70748;52.510;13.410;2023-09-19T12:50:26;29.90;28.20
81266;DHT22;70748;52.510;13.410;2023-09-19T12:52:55;29.90;28.20
81266;DHT22;70748;52.510;13.410;2023-09-19T13:00:31;29.70;28.70
81266;DHT22;70748;52.510;13.410;2023-09-19T13:03:16;29.90;29.00
81266;DHT22;70748;52.510;13.410;2023-09-19T13:08:34;29.30;28.90
81266;DHT22;70748;52.510;13.410;2023-09-19T13:11:04;28.60;29.40
81266;DHT22;70748;52.510;13.410;2023-09-19T13:13:41;28.00;30.00
81266;DHT22;70748;52.510;13.410;2023-09-19T13:16:07;27.30;30.60
81266;DHT22;70748;52.510;13.410;2023-09-19T13:18:48;26.80;32.00
81266;DHT22;70748;52.510;13.410;2023-09-19T13:23:54;26.40;32.30
81266;DHT22;70748;52.510;13.410;2023-09-19T13:26:24;26.10;32.90
81266;DHT22;70748;52.510;13.410;2023-09-19T13:28:50;26.00;34.50
81266;DHT22;70748;52.510;13.410;2023-09-19T13:31:16;26.00;33.50
81266;DHT22;70748;52.510;13.410;2023-09-19T13:33:45;25.70;34.80
81266;DHT22;70748;52.510;13.410;2023-09-19T13:36:11;25.30;34.00
81266;DHT22;70748;52.510;13.410;2023-09-19T13:38:39;25.30;34.40
81266;DHT22;70748;52.510;13.410;2023-09-19T13:41:04;25.00;34.60
81266;DHT22;70748;52.510;13.410;2023-09-19T13:43:30;24.80;34.70
81266;DHT22;70748;52.510;13.410;2023-09-19T13:45:55;24.50;35.50
81266;DHT22;70748;52.510;13.410;2023-09-19T13:48:22;24.50;36.50
81266;DHT22;70748;52.510;13.410;2023-09-19T13:50:49;24.10;37.00
81266;DHT22;70748;52.510;13.410;2023-09-19T13:53:15;23.90;37.30
81266;DHT22;70748;52.510;13.410;2023-09-19T13:55:42;23.80;37.60
81266;DHT22;70748;52.510;13.410;2023-09-19T13:58:07;23.80;37.40
81266;DHT22;70748;52.510;13.410;2023-09-19T14:00:36;23.90;38.20
81266;DHT22;70748;52.510;13.410;2023-09-19T14:03:02;23.80;38.00
81266;DHT22;70748;52.510;13.410;2023-09-19T14:05:29;23.80;37.30
81266;DHT22;70748;52.510;13.410;2023-09-19T14:07:55;23.90;37.60
81266;DHT22;70748;52.510;13.410;2023-09-19T14:10:21;23.80;37.60
81266;DHT22;70748;52.510;13.410;2023-09-19T14:12:47;23.80;37.70
81266;DHT22;70748;52.510;13.410;2023-09-19T14:15:13;23.90;38.20
81266;DHT22;70748;52.510;13.410;2023-09-19T14:17:39;23.90;38.60
81266;DHT22;70748;52.510;13.410;2023-09-19T14:20:05;23.90;37.20
81266;DHT22;70748;52.510;13.410;2023-09-19T14:22:32;23.90;38.00
81266;DHT22;70748;52.510;13.410;2023-09-19T14:24:58;23.90;37.40
81266;DHT22;70748;52.510;13.410;2023-09-19T14:27:25;23.80;38.90
81266;DHT22;70748;52.510;13.410;2023-09-19T14:29:50;23.70;38.40
81266;DHT22;70748;52.510;13.410;2023-09-19T14:32:16;23.70;38.10
81266;DHT22;70748;52.510;13.410;2023-09-19T14:34:42;23.50;38.00
81266;DHT22;70748;52.510;13.410;2023-09-19T14:37:09;23.40;38.30
81266;DHT22;70748;52.510;13.410;2023-09-19T14:39:36;23.30;39.00
81266;DHT22;70748;52.510;13.410;2023-09-19T14:42:04;23.20;39.60
81266;DHT22;70748;52.510;13.410;2023-09-19T14:44:29;23.20;39.70
81266;DHT22;70748;52.510;13.410;2023-09-19T14:46:55;23.00;39.70
81266;DHT22;70748;52.510;13.410;2023-09-19T14:49:21;23.10;40.60
81266;DHT22;70748;52.510;13.410;2023-09-19T14:51:46;23.10;39.80
81266;DHT22;70748;52.510;13.410;2023-09-19T14:54:13;23.00;39.80
81266;DHT22;70748;52.510;13.410;2023-09-19T14:56:40;22.90;40.60
81266;DHT22;70748;52.510;13.410;2023-09-19T14:59:06;22.90;40.80
81266;DHT22;70748;52.510;13.410;2023-09-19T15:01:32;22.90;40.20
81266;DHT22;70748;52.510;13.410;2023-09-19T15:03:58;22.80;41.30
81266;DHT22;70748;52.510;13.410;2023-09-19T15:06:26;22.70;40.50
81266;DHT22;70748;52.510;13.410;2023-09-19T15:08:51;22.70;40.60
81266;DHT22;70748;52.510;13.410;2023-09-19T15:11:17;22.80;40.30
81266;DHT22;70748;52.510;13.410;2023-09-19T15:13:43;22.70;40.60
81266;DHT22;70748;52.510;13.410;2023-09-19T15:16:10;22.70;41.00
81266;DHT22;70748;52.510;13.410;2023-09-19T15:18:36;22.60;41.20
81266;DHT22;70748;52.510;13.410;2023-09-19T15:21:06;22.60;41.30
81266;DHT22;70748;52.510;13.410;2023-09-19T15:23:32;22.50;40.80
81266;DHT22;70748;52.510;13.410;2023-09-19T15:26:03;22.50;40.20
81266;DHT22;70748;52.510;13.410;2023-09-19T15:28:28;22.50;40.50
81266;DHT22;70748;52.510;13.410;2023-09-19T15:30:59;22.40;40.90
81266;DHT22;70748;52.510;13.410;2023-09-19T15:33:25;22.30;41.10
81266;DHT22;70748;52.510;13.410;2023-09-19T15:35:52;22.20;41.90
81266;DHT22;70748;52.510;13.410;2023-09-19T15:38:18;22.10;41.60
81266;DHT22;70748;52.510;13.410;2023-09-19T15:40:47;22.10;42.20
81266;DHT22;70748;52.510;13.410;2023-09-19T15:43:13;21.90;41.90
81266;DHT22;70748;52.510;13.410;2023-09-19T15:45:39;22.00;42.60
81266;DHT22;70748;52.510;13.410;2023-09-19T15:48:05;21.90;42.80
81266;DHT22;70748;52.510;13.410;2023-09-19T15:50:31;21.80;42.80
81266;DHT22;70748;52.510;13.410;2023-09-19T15:52:56;21.80;42.70
81266;DHT22;70748;52.510;13.410;2023-09-19T15:55:23;21.80;42.40
81266;DHT22;70748;52.510;13.410;2023-09-19T15:57:48;21.80;42.40
81266;DHT22;70748;52.510;13.410;2023-09-19T16:00:14;21.80;42.40
81266;DHT22;70748;52.510;13.410;2023-09-19T16:02:42;21.90;42.20
81266;DHT22;70748;52.510;13.410;2023-09-19T16:05:10;21.80;42.60
81266;DHT22;70748;52.510;13.410;2023-09-19T16:07:37;21.80;42.80
81266;DHT22;70748;52.510;13.410;2023-09-19T16:10:03;21.70;43.10
81266;DHT22;70748;52.510;13.410;2023-09-19T16:12:29;21.70;43.30
81266;DHT22;70748;52.510;13.410;2023-09-19T16:14:55;21.70;43.00
81266;DHT22;70748;52.510;13.410;2023-09-19T16:17:21;21.60;43.80
81266;DHT22;70748;52.510;13.410;2023-09-19T16:19:47;21.40;43.80
81266;DHT22;70748;52.510;13.410;2023-09-19T16:22:13;21.40;43.80